• Join FlightAware (Why Join?)
  • Login
  • US Flag 
10:02AM EDT


 

Airport Tracker/Info


-or-


 

Live Flight TrackerFlight Track Log ✈ CRQ102 ✈ 05-Aug-2013 ✈ CYMT - CYVO

Flight Track Log - Related Links

Times and Time Zones

All times are in EDT time to prevent confusion due to time zone crossing. See the CRQ102 flight status page for this flight to view local times or setup timezone preferences in your user account.

Time Position Orientation Groundspeed Altitude Reporting Facility
EDT Latitude Longitude Course Direction KTS MPH feet Rate Location/Type
08:17PM 49.6667 -74.7167 229° Southwest 160 184 7,100  Level Montreal Center
08:18PM 49.6500 -74.7667 243° Southwest 150 173 8,400 1,260 Climbing Montreal Center
08:19PM 49.6333 -74.8167 243° Southwest 160 184 9,700 1,320 Climbing Montreal Center
08:20PM 49.6000 -74.8833 232° Southwest 160 184 11,100 1,200 Climbing Montreal Center
08:21PM 49.5833 -74.9500 249° West 160 184 12,100 1,020 Climbing Montreal Center
08:22PM 49.5500 -75.0000 224° Southwest 170 196 13,200 960 Climbing Montreal Center
08:23PM 49.5333 -75.0667 249° West 170 196 14,100 840 Climbing Montreal Center
08:24PM 49.5000 -75.1333 232° Southwest 170 196 14,900 780 Climbing Montreal Center
08:25PM 49.4667 -75.1833 224° Southwest 180 207 15,700 600 Climbing Montreal Center
08:26PM 49.4333 -75.2667 238° Southwest 180 207 16,100 300 Climbing Montreal Center
08:27PM 49.4000 -75.3167 224° Southwest 200 230 16,300  Climbing Montreal Center
08:28PM 49.3667 -75.4000 238° Southwest 210 242 16,100 -120 Descending Montreal Center
08:29PM 49.3333 -75.4833 238° Southwest 220 253 16,100  Level Montreal Center
08:30PM 49.3000 -75.5500 233° Southwest 220 253 16,100  Level Montreal Center
08:31PM 49.2500 -75.6333 227° Southwest 220 253 16,100  Level Montreal Center
08:32PM 49.2167 -75.7167 239° Southwest 220 253 16,100  Level Montreal Center
08:33PM 49.1833 -75.7833 233° Southwest 220 253 16,100  Level Montreal Center
08:34PM 49.1333 -75.8667 227° Southwest 230 265 16,100  Level Montreal Center
08:35PM 49.1000 -75.9333 233° Southwest 220 253 16,100  Level Montreal Center
08:36PM 49.0667 -76.0000 233° Southwest 220 253 16,100 -60 Level Montreal Center
08:37PM 49.0333 -76.1000 243° Southwest 220 253 16,000  Descending Montreal Center
08:38PM 49.0000 -76.1500 225° Southwest 220 253 16,100  Climbing Montreal Center
08:39PM 48.9500 -76.2500 233° Southwest 220 253 16,100  Level Montreal Center
08:40PM 48.9167 -76.3000 225° Southwest 220 253 16,100  Level Montreal Center
08:41PM 48.8833 -76.4000 243° Southwest 220 253 16,100  Level Montreal Center
08:42PM 48.8500 -76.4833 239° Southwest 220 253 16,100  Level Montreal Center
08:43PM 48.8167 -76.5500 233° Southwest 220 253 16,100  Level Montreal Center
08:44PM 48.8000 -76.6333 253° West 220 253 16,200  Climbing Montreal Center
08:45PM 48.7500 -76.7000 221° Southwest 230 265 16,100 -60 Descending Montreal Center
08:46PM 48.7167 -76.7833 239° Southwest 220 253 16,100  Level Montreal Center
08:47PM 48.6833 -76.8500 233° Southwest 230 265 16,100  Level Montreal Center
08:48PM 48.6333 -76.9333 228° Southwest 230 265 16,100  Level Montreal Center
08:49PM 48.5833 -76.9833 213° Southwest 220 253 16,100 -300 Level Montreal Center
08:50PM 48.5333 -77.0500 221° Southwest 230 265 15,600 -600 Descending Montreal Center
08:51PM 48.5000 -77.1333 239° Southwest 240 276 14,900 -720 Descending Montreal Center
08:52PM 48.4667 -77.2333 243° Southwest 240 276 14,200 -900 Descending Montreal Center
08:53PM 48.4333 -77.3167 239° Southwest 240 276 13,100 -1,680 Descending Montreal Center
08:54PM 48.3833 -77.4167 233° Southwest 230 265 10,900 -2,220 Descending Montreal Center
08:56PM 48.3171 -77.5327 229° Southwest  Level FlightAware Approximate
09:03PM 48.0500 -77.7667 146° Southeast  Level FlightAware Approximate
09:04PM 48.0533 -77.7828 146° Southeast  Level Estimated
09:05PM 48.0533 -77.7828 146° Southeast  Level Estimated
09:06PM 48.0533 -77.7828 146° Southeast  Level Estimated
09:07PM 48.0533 -77.7828 146° Southeast  Level Estimated
09:08PM 48.0533 -77.7828 146° Southeast  Level Estimated